Hookerton, North Carolina
Current Conditions -  °F | °C
As of 8:56 PM on Wednesday 22 Oct 2014 (Local Time) from KISO Reporting Station
Broken Clouds Broken Clouds  
Wind Chill: 59°   Ceiling: 5000
Heat Index: 59°   Visibility: 10mi
Dew Point: 48°   Wind: 0mph
Humidity: 67%   Direction: NA
Pressure: 29.99"   Gusts: NA
Location:  35.43°N, 77.59°W
Report Text: KISO 230056Z AUTO 00000KT 10SM BKN050 15/09 A2999 RMK AO2
Loading
Personal Weather Stations






























Interactive Weather Map
Tropical Storm Tracking
New forecast layout! Learn more

10-Day Weather Forecast

Advertisements
Track Severe Weather on mobile